createdAt,value
2022-08-11T00:05:06.130Z,5.60
2022-08-11T00:20:14.653Z,4.60
2022-08-11T00:35:54.469Z,3.10
2022-08-11T00:50:17.968Z,3.80
2022-08-11T01:05:18.634Z,3.90
2022-08-11T01:20:46.534Z,4.30
2022-08-11T01:35:24.490Z,6.00
2022-08-11T01:50:25.639Z,4.70
2022-08-11T02:05:26.363Z,5.80
2022-08-11T02:20:27.128Z,9.50
2022-08-11T02:35:28.186Z,4.70
2022-08-11T02:50:29.349Z,6.80
2022-08-11T03:05:30.465Z,7.80
2022-08-11T03:20:33.438Z,5.50
2022-08-11T03:35:37.910Z,6.50
2022-08-11T03:50:39.609Z,5.40
2022-08-11T04:05:40.810Z,6.60
2022-08-11T04:20:41.904Z,5.40
2022-08-11T04:35:46.052Z,10.70
2022-08-11T04:51:08.750Z,11.60
2022-08-11T05:05:56.637Z,5.10
2022-08-11T05:20:58.793Z,11.30
2022-08-11T05:36:00.015Z,6.80
2022-08-11T05:51:03.717Z,8.60
2022-08-11T06:06:10.834Z,7.80
2022-08-11T06:21:11.566Z,5.30
2022-08-11T06:36:12.670Z,7.60
2022-08-11T06:51:13.927Z,6.00
2022-08-11T07:06:15.100Z,6.50
2022-08-11T07:22:01.599Z,602.10
2022-08-11T07:36:22.503Z,1999.90
2022-08-11T07:51:28.470Z,1999.90
2022-08-11T08:06:36.112Z,1999.90
2022-08-11T08:21:33.611Z,1999.90
2022-08-11T08:36:33.681Z,1999.90
2022-08-11T08:51:57.043Z,1999.90
2022-08-11T09:06:38.848Z,1999.90
2022-08-11T09:21:46.360Z,1999.90
2022-08-11T09:36:44.035Z,1999.90
2022-08-11T09:51:59.767Z,69.40
2022-08-11T10:06:54.151Z,6.50
2022-08-11T10:21:54.312Z,5.50
2022-08-11T10:36:54.923Z,7.20
2022-08-11T10:51:58.907Z,16.40
2022-08-11T11:07:00.078Z,92.70
2022-08-11T11:22:00.194Z,227.80
2022-08-11T11:37:00.829Z,412.30
2022-08-11T11:52:02.380Z,338.60
2022-08-11T12:07:02.940Z,1999.90
2022-08-11T12:22:03.544Z,1999.90
2022-08-11T12:37:03.981Z,1999.90
2022-08-11T12:52:14.999Z,1999.90
2022-08-11T13:07:10.751Z,1999.90
2022-08-11T13:22:12.280Z,1999.90
2022-08-11T13:37:12.580Z,1999.90
2022-08-11T13:52:14.069Z,1999.90
2022-08-11T14:07:14.654Z,1999.90
2022-08-11T14:22:15.257Z,1999.90
2022-08-11T14:37:15.883Z,1999.90
2022-08-11T14:52:17.448Z,1999.90
2022-08-11T15:07:18.043Z,1999.90
2022-08-11T15:22:18.628Z,1999.90
2022-08-11T15:37:19.277Z,1999.90
2022-08-11T15:52:20.868Z,1999.90
2022-08-11T16:07:21.489Z,1999.90
2022-08-11T16:22:26.124Z,1999.90
2022-08-11T16:37:27.444Z,1999.90
2022-08-11T16:52:28.121Z,1999.90
2022-08-11T17:07:40.253Z,1999.90
2022-08-11T17:22:34.811Z,1999.90
2022-08-11T17:37:34.947Z,1999.90
2022-08-11T17:52:36.010Z,875.80
2022-08-11T18:07:36.681Z,1999.90
2022-08-11T18:22:38.260Z,1999.90
2022-08-11T18:37:39.341Z,1999.90
2022-08-11T18:53:29.882Z,1549.30
2022-08-11T19:08:30.531Z,469.80
2022-08-11T19:23:30.608Z,58.30
2022-08-11T19:38:31.209Z,52.20
2022-08-11T19:53:31.281Z,1999.90
2022-08-11T20:08:31.889Z,1999.90
2022-08-11T20:23:31.987Z,1999.90
2022-08-11T20:38:33.625Z,1999.90
2022-08-11T20:53:35.647Z,1999.90
2022-08-11T21:08:37.280Z,1999.90
2022-08-11T21:23:37.371Z,768.20
2022-08-11T21:38:37.956Z,358.90
2022-08-11T21:53:38.056Z,317.70
2022-08-11T22:08:38.653Z,184.20
2022-08-11T22:23:38.759Z,81.40
2022-08-11T22:38:39.369Z,111.60
2022-08-11T22:53:57.368Z,108.30
2022-08-11T23:08:44.590Z,58.90
2022-08-11T23:23:45.683Z,50.10
2022-08-11T23:38:45.793Z,37.10
2022-08-11T23:53:46.375Z,5.30
